sensor_id;sensor_type;location;lat;lon;timestamp;P1;durP1;ratioP1;P2;durP2;ratioP2
3939;SDS011;1984;48.312;9.244;2023-03-03T00:02:12;44.87;;;18.47;;
3939;SDS011;1984;48.312;9.244;2023-03-03T00:04:37;37.10;;;18.87;;
3939;SDS011;1984;48.312;9.244;2023-03-03T00:07:03;33.20;;;17.37;;
3939;SDS011;1984;48.312;9.244;2023-03-03T00:09:29;40.70;;;19.10;;
3939;SDS011;1984;48.312;9.244;2023-03-03T00:11:55;37.50;;;17.50;;
3939;SDS011;1984;48.312;9.244;2023-03-03T00:14:41;42.57;;;17.83;;
3939;SDS011;1984;48.312;9.244;2023-03-03T00:17:12;39.70;;;19.03;;
3939;SDS011;1984;48.312;9.244;2023-03-03T00:19:45;37.20;;;18.63;;
3939;SDS011;1984;48.312;9.244;2023-03-03T00:24:48;40.30;;;19.17;;
3939;SDS011;1984;48.312;9.244;2023-03-03T00:27:28;47.20;;;19.37;;
3939;SDS011;1984;48.312;9.244;2023-03-03T00:29:56;42.63;;;19.27;;
3939;SDS011;1984;48.312;9.244;2023-03-03T00:34:50;45.30;;;20.03;;
3939;SDS011;1984;48.312;9.244;2023-03-03T00:39:47;52.80;;;20.63;;
3939;SDS011;1984;48.312;9.244;2023-03-03T00:42:16;39.70;;;20.40;;
3939;SDS011;1984;48.312;9.244;2023-03-03T00:52:30;43.90;;;19.70;;
3939;SDS011;1984;48.312;9.244;2023-03-03T00:54:59;42.30;;;20.30;;
3939;SDS011;1984;48.312;9.244;2023-03-03T00:57:25;38.80;;;19.60;;
3939;SDS011;1984;48.312;9.244;2023-03-03T00:59:50;38.47;;;19.00;;
3939;SDS011;1984;48.312;9.244;2023-03-03T01:02:16;44.30;;;19.80;;
3939;SDS011;1984;48.312;9.244;2023-03-03T01:04:42;39.57;;;18.77;;
3939;SDS011;1984;48.312;9.244;2023-03-03T01:07:13;39.10;;;16.97;;
3939;SDS011;1984;48.312;9.244;2023-03-03T01:09:38;48.47;;;19.27;;
3939;SDS011;1984;48.312;9.244;2023-03-03T01:12:04;38.00;;;18.87;;
3939;SDS011;1984;48.312;9.244;2023-03-03T01:14:30;38.53;;;17.50;;
3939;SDS011;1984;48.312;9.244;2023-03-03T01:16:56;38.93;;;18.47;;
3939;SDS011;1984;48.312;9.244;2023-03-03T01:19:23;36.47;;;18.33;;
3939;SDS011;1984;48.312;9.244;2023-03-03T01:21:49;40.23;;;19.20;;
3939;SDS011;1984;48.312;9.244;2023-03-03T01:24:15;38.23;;;18.33;;
3939;SDS011;1984;48.312;9.244;2023-03-03T01:26:40;39.80;;;17.33;;
3939;SDS011;1984;48.312;9.244;2023-03-03T01:29:06;33.83;;;16.70;;
3939;SDS011;1984;48.312;9.244;2023-03-03T01:31:31;44.57;;;18.10;;
3939;SDS011;1984;48.312;9.244;2023-03-03T01:33:57;50.63;;;19.37;;
3939;SDS011;1984;48.312;9.244;2023-03-03T01:36:24;39.47;;;18.13;;
3939;SDS011;1984;48.312;9.244;2023-03-03T01:38:50;41.83;;;18.97;;
3939;SDS011;1984;48.312;9.244;2023-03-03T01:41:16;42.40;;;19.50;;
3939;SDS011;1984;48.312;9.244;2023-03-03T01:43:46;44.63;;;18.27;;
3939;SDS011;1984;48.312;9.244;2023-03-03T01:46:26;38.37;;;17.80;;
3939;SDS011;1984;48.312;9.244;2023-03-03T01:48:53;33.97;;;17.40;;
3939;SDS011;1984;48.312;9.244;2023-03-03T01:51:28;55.70;;;19.10;;
3939;SDS011;1984;48.312;9.244;2023-03-03T01:54:00;32.93;;;16.80;;
3939;SDS011;1984;48.312;9.244;2023-03-03T01:56:29;38.37;;;16.70;;
3939;SDS011;1984;48.312;9.244;2023-03-03T01:58:57;38.80;;;17.70;;
3939;SDS011;1984;48.312;9.244;2023-03-03T02:01:29;43.47;;;18.77;;
3939;SDS011;1984;48.312;9.244;2023-03-03T02:03:56;40.40;;;18.37;;
3939;SDS011;1984;48.312;9.244;2023-03-03T02:06:24;42.50;;;19.90;;
3939;SDS011;1984;48.312;9.244;2023-03-03T02:09:15;38.30;;;18.40;;
3939;SDS011;1984;48.312;9.244;2023-03-03T02:11:42;45.27;;;18.07;;
3939;SDS011;1984;48.312;9.244;2023-03-03T02:14:10;42.97;;;17.33;;
3939;SDS011;1984;48.312;9.244;2023-03-03T02:16:36;34.13;;;17.20;;
3939;SDS011;1984;48.312;9.244;2023-03-03T02:19:04;46.37;;;17.33;;
3939;SDS011;1984;48.312;9.244;2023-03-03T02:21:34;40.83;;;19.47;;
3939;SDS011;1984;48.312;9.244;2023-03-03T02:26:26;33.80;;;15.70;;
3939;SDS011;1984;48.312;9.244;2023-03-03T02:28:52;33.37;;;16.87;;
3939;SDS011;1984;48.312;9.244;2023-03-03T02:31:19;33.20;;;16.30;;
3939;SDS011;1984;48.312;9.244;2023-03-03T02:33:48;37.40;;;16.40;;
3939;SDS011;1984;48.312;9.244;2023-03-03T02:36:16;32.23;;;16.87;;
3939;SDS011;1984;48.312;9.244;2023-03-03T02:38:56;33.27;;;16.37;;
3939;SDS011;1984;48.312;9.244;2023-03-03T02:41:49;36.30;;;15.20;;
3939;SDS011;1984;48.312;9.244;2023-03-03T02:44:31;33.47;;;16.07;;
3939;SDS011;1984;48.312;9.244;2023-03-03T02:46:57;31.70;;;15.07;;
3939;SDS011;1984;48.312;9.244;2023-03-03T02:49:24;35.03;;;17.13;;
3939;SDS011;1984;48.312;9.244;2023-03-03T02:51:51;44.10;;;17.90;;
3939;SDS011;1984;48.312;9.244;2023-03-03T02:54:18;34.57;;;17.47;;
3939;SDS011;1984;48.312;9.244;2023-03-03T02:56:45;31.60;;;16.13;;
3939;SDS011;1984;48.312;9.244;2023-03-03T02:59:11;31.07;;;16.90;;
3939;SDS011;1984;48.312;9.244;2023-03-03T03:01:37;32.90;;;16.23;;
3939;SDS011;1984;48.312;9.244;2023-03-03T03:04:07;39.07;;;17.70;;
3939;SDS011;1984;48.312;9.244;2023-03-03T03:06:38;38.60;;;17.90;;
3939;SDS011;1984;48.312;9.244;2023-03-03T03:09:04;36.53;;;16.93;;
3939;SDS011;1984;48.312;9.244;2023-03-03T03:11:32;33.50;;;15.40;;
3939;SDS011;1984;48.312;9.244;2023-03-03T03:13:59;37.60;;;16.00;;
3939;SDS011;1984;48.312;9.244;2023-03-03T03:16:25;39.33;;;16.73;;
3939;SDS011;1984;48.312;9.244;2023-03-03T03:18:50;33.53;;;16.73;;
3939;SDS011;1984;48.312;9.244;2023-03-03T03:21:16;34.63;;;17.20;;
3939;SDS011;1984;48.312;9.244;2023-03-03T03:23:42;39.83;;;17.80;;
3939;SDS011;1984;48.312;9.244;2023-03-03T03:26:08;34.97;;;16.07;;
3939;SDS011;1984;48.312;9.244;2023-03-03T03:28:33;34.37;;;15.90;;
3939;SDS011;1984;48.312;9.244;2023-03-03T03:31:00;34.20;;;17.23;;
3939;SDS011;1984;48.312;9.244;2023-03-03T03:33:26;38.47;;;17.90;;
3939;SDS011;1984;48.312;9.244;2023-03-03T03:35:52;36.53;;;17.10;;
3939;SDS011;1984;48.312;9.244;2023-03-03T03:38:19;33.53;;;16.57;;
3939;SDS011;1984;48.312;9.244;2023-03-03T03:40:45;39.17;;;17.50;;
3939;SDS011;1984;48.312;9.244;2023-03-03T03:43:11;33.27;;;17.93;;
3939;SDS011;1984;48.312;9.244;2023-03-03T03:45:36;30.60;;;15.10;;
3939;SDS011;1984;48.312;9.244;2023-03-03T03:48:02;34.90;;;16.60;;
3939;SDS011;1984;48.312;9.244;2023-03-03T03:50:28;31.20;;;16.60;;
3939;SDS011;1984;48.312;9.244;2023-03-03T03:52:54;30.03;;;15.30;;
3939;SDS011;1984;48.312;9.244;2023-03-03T03:55:19;32.50;;;15.40;;
3939;SDS011;1984;48.312;9.244;2023-03-03T03:57:46;32.00;;;15.63;;
3939;SDS011;1984;48.312;9.244;2023-03-03T04:00:12;30.83;;;15.90;;
3939;SDS011;1984;48.312;9.244;2023-03-03T04:02:38;31.60;;;15.33;;
3939;SDS011;1984;48.312;9.244;2023-03-03T04:05:03;36.10;;;16.83;;
3939;SDS011;1984;48.312;9.244;2023-03-03T04:07:29;31.40;;;16.17;;
3939;SDS011;1984;48.312;9.244;2023-03-03T04:09:55;28.33;;;15.40;;
3939;SDS011;1984;48.312;9.244;2023-03-03T04:12:20;32.07;;;14.93;;
3939;SDS011;1984;48.312;9.244;2023-03-03T04:14:46;37.43;;;16.33;;
3939;SDS011;1984;48.312;9.244;2023-03-03T04:17:19;32.53;;;16.37;;
3939;SDS011;1984;48.312;9.244;2023-03-03T04:19:45;30.60;;;15.47;;
3939;SDS011;1984;48.312;9.244;2023-03-03T04:22:11;37.47;;;16.33;;
3939;SDS011;1984;48.312;9.244;2023-03-03T04:24:37;34.30;;;16.47;;
3939;SDS011;1984;48.312;9.244;2023-03-03T04:27:04;38.10;;;17.93;;
3939;SDS011;1984;48.312;9.244;2023-03-03T04:29:29;35.23;;;16.10;;
3939;SDS011;1984;48.312;9.244;2023-03-03T04:31:55;33.13;;;16.10;;
3939;SDS011;1984;48.312;9.244;2023-03-03T04:34:20;35.80;;;17.17;;
3939;SDS011;1984;48.312;9.244;2023-03-03T04:36:46;32.87;;;15.67;;
3939;SDS011;1984;48.312;9.244;2023-03-03T04:39:12;35.50;;;16.30;;
3939;SDS011;1984;48.312;9.244;2023-03-03T04:41:37;38.43;;;17.17;;
3939;SDS011;1984;48.312;9.244;2023-03-03T04:44:03;28.93;;;15.60;;
3939;SDS011;1984;48.312;9.244;2023-03-03T04:46:28;33.23;;;16.73;;
3939;SDS011;1984;48.312;9.244;2023-03-03T04:48:54;42.97;;;17.60;;
3939;SDS011;1984;48.312;9.244;2023-03-03T04:51:20;37.17;;;15.60;;
3939;SDS011;1984;48.312;9.244;2023-03-03T04:53:46;32.80;;;16.30;;
3939;SDS011;1984;48.312;9.244;2023-03-03T04:56:12;37.57;;;19.07;;
3939;SDS011;1984;48.312;9.244;2023-03-03T04:58:37;32.13;;;16.17;;
3939;SDS011;1984;48.312;9.244;2023-03-03T05:01:03;30.40;;;15.27;;
3939;SDS011;1984;48.312;9.244;2023-03-03T05:03:29;31.93;;;15.43;;
3939;SDS011;1984;48.312;9.244;2023-03-03T05:05:54;39.13;;;17.20;;
3939;SDS011;1984;48.312;9.244;2023-03-03T05:08:20;34.83;;;15.40;;
3939;SDS011;1984;48.312;9.244;2023-03-03T05:10:45;29.20;;;15.37;;
3939;SDS011;1984;48.312;9.244;2023-03-03T05:13:11;34.83;;;17.17;;
3939;SDS011;1984;48.312;9.244;2023-03-03T05:15:39;33.30;;;17.23;;
3939;SDS011;1984;48.312;9.244;2023-03-03T05:18:04;38.30;;;16.30;;
3939;SDS011;1984;48.312;9.244;2023-03-03T05:20:30;47.83;;;18.30;;
3939;SDS011;1984;48.312;9.244;2023-03-03T05:22:55;37.70;;;17.87;;
3939;SDS011;1984;48.312;9.244;2023-03-03T05:25:23;33.20;;;16.40;;
3939;SDS011;1984;48.312;9.244;2023-03-03T05:27:49;34.57;;;16.47;;
3939;SDS011;1984;48.312;9.244;2023-03-03T05:30:14;35.73;;;17.27;;
3939;SDS011;1984;48.312;9.244;2023-03-03T05:32:40;38.60;;;16.70;;
3939;SDS011;1984;48.312;9.244;2023-03-03T05:35:06;34.43;;;16.47;;
3939;SDS011;1984;48.312;9.244;2023-03-03T05:37:32;35.63;;;15.73;;
3939;SDS011;1984;48.312;9.244;2023-03-03T05:39:57;40.80;;;15.73;;
3939;SDS011;1984;48.312;9.244;2023-03-03T05:42:23;34.33;;;16.40;;
3939;SDS011;1984;48.312;9.244;2023-03-03T05:44:48;34.03;;;17.17;;
3939;SDS011;1984;48.312;9.244;2023-03-03T05:47:14;32.00;;;15.67;;
3939;SDS011;1984;48.312;9.244;2023-03-03T05:49:39;39.87;;;17.10;;
3939;SDS011;1984;48.312;9.244;2023-03-03T05:52:05;37.47;;;16.27;;
3939;SDS011;1984;48.312;9.244;2023-03-03T05:54:30;39.33;;;15.80;;
3939;SDS011;1984;48.312;9.244;2023-03-03T05:56:56;38.93;;;16.00;;
3939;SDS011;1984;48.312;9.244;2023-03-03T05:59:22;33.17;;;16.30;;
3939;SDS011;1984;48.312;9.244;2023-03-03T06:01:48;32.77;;;15.27;;
3939;SDS011;1984;48.312;9.244;2023-03-03T06:04:14;40.83;;;17.97;;
3939;SDS011;1984;48.312;9.244;2023-03-03T06:06:40;45.80;;;18.27;;
3939;SDS011;1984;48.312;9.244;2023-03-03T06:09:05;35.57;;;16.07;;
3939;SDS011;1984;48.312;9.244;2023-03-03T06:11:31;31.17;;;16.60;;
3939;SDS011;1984;48.312;9.244;2023-03-03T06:13:56;40.60;;;17.77;;
3939;SDS011;1984;48.312;9.244;2023-03-03T06:16:22;42.50;;;17.20;;
3939;SDS011;1984;48.312;9.244;2023-03-03T06:18:47;35.90;;;16.73;;
3939;SDS011;1984;48.312;9.244;2023-03-03T06:21:13;38.20;;;18.00;;
3939;SDS011;1984;48.312;9.244;2023-03-03T06:23:38;31.60;;;16.47;;
3939;SDS011;1984;48.312;9.244;2023-03-03T06:26:04;39.07;;;15.47;;
3939;SDS011;1984;48.312;9.244;2023-03-03T06:28:30;42.70;;;17.20;;
3939;SDS011;1984;48.312;9.244;2023-03-03T06:30:56;36.77;;;17.13;;
3939;SDS011;1984;48.312;9.244;2023-03-03T06:33:22;30.20;;;15.27;;
3939;SDS011;1984;48.312;9.244;2023-03-03T06:35:49;36.97;;;18.00;;
3939;SDS011;1984;48.312;9.244;2023-03-03T06:38:15;36.93;;;17.00;;
3939;SDS011;1984;48.312;9.244;2023-03-03T06:40:40;33.93;;;17.20;;
3939;SDS011;1984;48.312;9.244;2023-03-03T06:43:06;39.13;;;18.43;;
3939;SDS011;1984;48.312;9.244;2023-03-03T06:45:32;43.23;;;19.17;;
3939;SDS011;1984;48.312;9.244;2023-03-03T06:47:57;39.80;;;17.97;;
3939;SDS011;1984;48.312;9.244;2023-03-03T06:50:23;40.40;;;18.50;;
3939;SDS011;1984;48.312;9.244;2023-03-03T06:52:48;37.73;;;17.47;;
3939;SDS011;1984;48.312;9.244;2023-03-03T06:55:20;38.47;;;17.03;;
3939;SDS011;1984;48.312;9.244;2023-03-03T06:57:48;41.77;;;17.90;;
3939;SDS011;1984;48.312;9.244;2023-03-03T07:02:44;52.40;;;20.50;;
3939;SDS011;1984;48.312;9.244;2023-03-03T07:05:14;40.00;;;16.87;;
3939;SDS011;1984;48.312;9.244;2023-03-03T07:07:41;63.17;;;16.10;;
3939;SDS011;1984;48.312;9.244;2023-03-03T07:10:12;40.07;;;19.57;;
3939;SDS011;1984;48.312;9.244;2023-03-03T07:12:51;43.50;;;16.90;;
3939;SDS011;1984;48.312;9.244;2023-03-03T07:15:38;38.00;;;17.93;;
3939;SDS011;1984;48.312;9.244;2023-03-03T07:18:02;40.00;;;18.57;;
3939;SDS011;1984;48.312;9.244;2023-03-03T07:20:45;40.10;;;17.00;;
3939;SDS011;1984;48.312;9.244;2023-03-03T07:25:45;36.73;;;16.40;;
3939;SDS011;1984;48.312;9.244;2023-03-03T07:28:21;36.87;;;17.53;;
3939;SDS011;1984;48.312;9.244;2023-03-03T07:30:52;40.13;;;18.70;;
3939;SDS011;1984;48.312;9.244;2023-03-03T07:35:47;39.50;;;17.57;;
3939;SDS011;1984;48.312;9.244;2023-03-03T07:40:38;38.80;;;16.50;;
3939;SDS011;1984;48.312;9.244;2023-03-03T07:43:16;41.63;;;18.87;;
3939;SDS011;1984;48.312;9.244;2023-03-03T07:45:55;37.50;;;18.87;;
3939;SDS011;1984;48.312;9.244;2023-03-03T07:48:35;43.13;;;19.80;;
3939;SDS011;1984;48.312;9.244;2023-03-03T07:51:03;38.27;;;17.70;;
3939;SDS011;1984;48.312;9.244;2023-03-03T07:53:35;35.23;;;16.83;;
3939;SDS011;1984;48.312;9.244;2023-03-03T07:56:02;40.80;;;17.97;;
3939;SDS011;1984;48.312;9.244;2023-03-03T07:58:39;44.03;;;17.97;;
3939;SDS011;1984;48.312;9.244;2023-03-03T08:03:52;36.13;;;17.17;;
3939;SDS011;1984;48.312;9.244;2023-03-03T08:06:25;34.07;;;16.27;;
3939;SDS011;1984;48.312;9.244;2023-03-03T08:11:54;42.67;;;19.67;;
3939;SDS011;1984;48.312;9.244;2023-03-03T08:14:34;35.27;;;15.30;;
3939;SDS011;1984;48.312;9.244;2023-03-03T08:17:01;39.60;;;18.20;;
3939;SDS011;1984;48.312;9.244;2023-03-03T08:19:31;37.90;;;16.70;;
3939;SDS011;1984;48.312;9.244;2023-03-03T08:22:17;40.07;;;17.87;;
3939;SDS011;1984;48.312;9.244;2023-03-03T08:24:48;44.23;;;17.93;;
3939;SDS011;1984;48.312;9.244;2023-03-03T08:27:13;43.73;;;20.80;;
3939;SDS011;1984;48.312;9.244;2023-03-03T08:29:39;39.33;;;18.00;;
3939;SDS011;1984;48.312;9.244;2023-03-03T08:32:04;34.57;;;17.93;;
3939;SDS011;1984;48.312;9.244;2023-03-03T08:34:30;37.93;;;17.13;;
3939;SDS011;1984;48.312;9.244;2023-03-03T08:36:55;39.53;;;16.70;;
3939;SDS011;1984;48.312;9.244;2023-03-03T08:39:22;39.47;;;17.60;;
3939;SDS011;1984;48.312;9.244;2023-03-03T08:41:48;45.10;;;18.40;;
3939;SDS011;1984;48.312;9.244;2023-03-03T08:44:13;40.03;;;17.67;;
3939;SDS011;1984;48.312;9.244;2023-03-03T08:46:39;41.47;;;19.27;;
3939;SDS011;1984;48.312;9.244;2023-03-03T08:49:05;35.93;;;17.50;;
3939;SDS011;1984;48.312;9.244;2023-03-03T08:51:30;36.13;;;17.70;;
3939;SDS011;1984;48.312;9.244;2023-03-03T08:53:58;36.07;;;17.07;;
3939;SDS011;1984;48.312;9.244;2023-03-03T08:56:23;38.20;;;17.03;;
3939;SDS011;1984;48.312;9.244;2023-03-03T08:58:49;39.43;;;18.20;;
3939;SDS011;1984;48.312;9.244;2023-03-03T09:01:14;43.60;;;18.20;;
3939;SDS011;1984;48.312;9.244;2023-03-03T09:03:41;36.40;;;16.57;;
3939;SDS011;1984;48.312;9.244;2023-03-03T09:06:07;43.20;;;16.70;;
3939;SDS011;1984;48.312;9.244;2023-03-03T09:08:33;32.83;;;16.97;;
3939;SDS011;1984;48.312;9.244;2023-03-03T09:10:59;39.87;;;18.47;;
3939;SDS011;1984;48.312;9.244;2023-03-03T09:13:24;35.37;;;17.80;;
3939;SDS011;1984;48.312;9.244;2023-03-03T09:15:53;36.73;;;17.47;;
3939;SDS011;1984;48.312;9.244;2023-03-03T09:18:20;35.23;;;17.03;;
3939;SDS011;1984;48.312;9.244;2023-03-03T09:20:51;40.77;;;17.73;;
3939;SDS011;1984;48.312;9.244;2023-03-03T09:23:32;40.63;;;19.63;;
3939;SDS011;1984;48.312;9.244;2023-03-03T09:31:44;45.20;;;18.70;;
3939;SDS011;1984;48.312;9.244;2023-03-03T09:34:40;40.93;;;17.30;;
3939;SDS011;1984;48.312;9.244;2023-03-03T09:37:49;34.97;;;17.50;;
3939;SDS011;1984;48.312;9.244;2023-03-03T09:40:00;34.23;;;16.97;;
3939;SDS011;1984;48.312;9.244;2023-03-03T09:43:34;43.90;;;17.93;;
3939;SDS011;1984;48.312;9.244;2023-03-03T09:46:31;42.20;;;18.47;;
3939;SDS011;1984;48.312;9.244;2023-03-03T09:54:18;34.40;;;16.37;;
3939;SDS011;1984;48.312;9.244;2023-03-03T09:57:00;34.10;;;15.93;;
3939;SDS011;1984;48.312;9.244;2023-03-03T09:59:43;34.30;;;18.40;;
3939;SDS011;1984;48.312;9.244;2023-03-03T10:02:27;34.87;;;16.90;;
3939;SDS011;1984;48.312;9.244;2023-03-03T10:05:11;35.90;;;16.83;;
3939;SDS011;1984;48.312;9.244;2023-03-03T10:08:47;53.80;;;17.37;;
3939;SDS011;1984;48.312;9.244;2023-03-03T10:10:55;28.27;;;15.17;;
3939;SDS011;1984;48.312;9.244;2023-03-03T10:13:51;34.93;;;16.30;;
3939;SDS011;1984;48.312;9.244;2023-03-03T10:16:37;39.37;;;16.90;;
3939;SDS011;1984;48.312;9.244;2023-03-03T10:19:09;33.40;;;14.63;;
3939;SDS011;1984;48.312;9.244;2023-03-03T10:27:41;33.57;;;17.17;;
3939;SDS011;1984;48.312;9.244;2023-03-03T10:30:24;41.60;;;17.27;;
3939;SDS011;1984;48.312;9.244;2023-03-03T10:35:57;38.33;;;17.23;;
3939;SDS011;1984;48.312;9.244;2023-03-03T10:44:09;36.83;;;17.57;;
3939;SDS011;1984;48.312;9.244;2023-03-03T10:46:47;28.40;;;16.23;;
3939;SDS011;1984;48.312;9.244;2023-03-03T10:57:16;49.77;;;18.37;;
3939;SDS011;1984;48.312;9.244;2023-03-03T11:02:51;47.17;;;19.10;;
3939;SDS011;1984;48.312;9.244;2023-03-03T11:08:06;42.27;;;19.57;;
3939;SDS011;1984;48.312;9.244;2023-03-03T11:10:53;45.27;;;20.30;;
3939;SDS011;1984;48.312;9.244;2023-03-03T11:13:33;34.73;;;18.80;;
3939;SDS011;1984;48.312;9.244;2023-03-03T11:22:10;38.23;;;19.30;;
3939;SDS011;1984;48.312;9.244;2023-03-03T11:25:00;49.00;;;28.67;;
3939;SDS011;1984;48.312;9.244;2023-03-03T11:30:27;42.20;;;22.33;;
3939;SDS011;1984;48.312;9.244;2023-03-03T11:38:16;47.27;;;21.20;;
3939;SDS011;1984;48.312;9.244;2023-03-03T11:40:50;39.00;;;20.37;;
3939;SDS011;1984;48.312;9.244;2023-03-03T11:43:26;43.23;;;21.37;;
3939;SDS011;1984;48.312;9.244;2023-03-03T11:46:06;43.67;;;21.10;;
3939;SDS011;1984;48.312;9.244;2023-03-03T11:48:43;48.37;;;21.30;;
3939;SDS011;1984;48.312;9.244;2023-03-03T11:56:44;37.23;;;19.70;;
3939;SDS011;1984;48.312;9.244;2023-03-03T12:02:57;40.40;;;20.07;;
3939;SDS011;1984;48.312;9.244;2023-03-03T12:13:10;40.00;;;20.00;;
3939;SDS011;1984;48.312;9.244;2023-03-03T12:15:52;37.43;;;20.63;;
3939;SDS011;1984;48.312;9.244;2023-03-03T12:37:13;43.33;;;19.80;;
3939;SDS011;1984;48.312;9.244;2023-03-03T12:40:01;36.90;;;19.87;;
3939;SDS011;1984;48.312;9.244;2023-03-03T12:42:57;37.47;;;19.70;;
3939;SDS011;1984;48.312;9.244;2023-03-03T12:48:08;44.43;;;21.33;;
3939;SDS011;1984;48.312;9.244;2023-03-03T12:50:47;43.63;;;20.47;;
3939;SDS011;1984;48.312;9.244;2023-03-03T12:53:32;40.33;;;20.30;;
3939;SDS011;1984;48.312;9.244;2023-03-03T12:56:08;41.63;;;19.77;;
3939;SDS011;1984;48.312;9.244;2023-03-03T13:14:56;34.50;;;18.83;;
3939;SDS011;1984;48.312;9.244;2023-03-03T13:17:37;41.03;;;19.23;;
3939;SDS011;1984;48.312;9.244;2023-03-03T13:20:27;36.30;;;20.13;;
3939;SDS011;1984;48.312;9.244;2023-03-03T13:23:05;43.50;;;20.07;;
3939;SDS011;1984;48.312;9.244;2023-03-03T13:28:17;42.40;;;22.10;;
3939;SDS011;1984;48.312;9.244;2023-03-03T13:35:59;47.40;;;20.60;;
3939;SDS011;1984;48.312;9.244;2023-03-03T13:38:32;37.90;;;19.90;;
3939;SDS011;1984;48.312;9.244;2023-03-03T13:44:19;40.43;;;19.67;;
3939;SDS011;1984;48.312;9.244;2023-03-03T13:49:40;36.83;;;18.30;;
3939;SDS011;1984;48.312;9.244;2023-03-03T13:52:28;48.20;;;20.20;;
3939;SDS011;1984;48.312;9.244;2023-03-03T13:57:35;35.80;;;18.10;;
3939;SDS011;1984;48.312;9.244;2023-03-03T14:06:07;33.57;;;17.13;;
3939;SDS011;1984;48.312;9.244;2023-03-03T14:17:08;40.30;;;21.30;;
3939;SDS011;1984;48.312;9.244;2023-03-03T14:20:13;34.57;;;17.53;;
3939;SDS011;1984;48.312;9.244;2023-03-03T14:22:50;33.00;;;17.93;;
3939;SDS011;1984;48.312;9.244;2023-03-03T14:25:26;39.67;;;18.13;;
3939;SDS011;1984;48.312;9.244;2023-03-03T14:28:17;32.77;;;17.60;;
3939;SDS011;1984;48.312;9.244;2023-03-03T14:30:45;32.37;;;17.50;;
3939;SDS011;1984;48.312;9.244;2023-03-03T14:38:21;37.13;;;17.57;;
3939;SDS011;1984;48.312;9.244;2023-03-03T14:40:48;40.00;;;18.10;;
3939;SDS011;1984;48.312;9.244;2023-03-03T14:46:47;36.90;;;16.63;;
3939;SDS011;1984;48.312;9.244;2023-03-03T14:48:51;38.43;;;18.53;;
3939;SDS011;1984;48.312;9.244;2023-03-03T14:53:49;39.47;;;18.80;;
3939;SDS011;1984;48.312;9.244;2023-03-03T14:58:53;34.40;;;18.50;;
3939;SDS011;1984;48.312;9.244;2023-03-03T15:01:35;34.80;;;19.23;;
3939;SDS011;1984;48.312;9.244;2023-03-03T15:04:03;35.87;;;17.80;;
3939;SDS011;1984;48.312;9.244;2023-03-03T15:06:47;36.00;;;18.30;;
3939;SDS011;1984;48.312;9.244;2023-03-03T15:09:19;37.70;;;19.57;;
3939;SDS011;1984;48.312;9.244;2023-03-03T15:12:24;36.03;;;19.93;;
3939;SDS011;1984;48.312;9.244;2023-03-03T15:15:05;38.60;;;19.53;;
3939;SDS011;1984;48.312;9.244;2023-03-03T15:17:43;39.47;;;20.40;;
3939;SDS011;1984;48.312;9.244;2023-03-03T15:20:41;43.53;;;20.70;;
3939;SDS011;1984;48.312;9.244;2023-03-03T15:29:24;33.80;;;17.93;;
3939;SDS011;1984;48.312;9.244;2023-03-03T15:31:59;38.57;;;19.20;;
3939;SDS011;1984;48.312;9.244;2023-03-03T15:37:50;40.97;;;19.57;;
3939;SDS011;1984;48.312;9.244;2023-03-03T15:40:27;41.10;;;20.00;;
3939;SDS011;1984;48.312;9.244;2023-03-03T15:48:23;39.83;;;19.93;;
3939;SDS011;1984;48.312;9.244;2023-03-03T15:51:13;43.87;;;21.70;;
3939;SDS011;1984;48.312;9.244;2023-03-03T15:53:52;39.00;;;18.67;;
3939;SDS011;1984;48.312;9.244;2023-03-03T15:56:47;41.50;;;20.13;;
3939;SDS011;1984;48.312;9.244;2023-03-03T16:00:08;42.13;;;20.03;;
3939;SDS011;1984;48.312;9.244;2023-03-03T16:02:23;40.63;;;21.27;;
3939;SDS011;1984;48.312;9.244;2023-03-03T16:10:25;43.80;;;20.43;;
3939;SDS011;1984;48.312;9.244;2023-03-03T16:15:48;39.03;;;20.07;;
3939;SDS011;1984;48.312;9.244;2023-03-03T16:21:16;41.40;;;21.53;;
3939;SDS011;1984;48.312;9.244;2023-03-03T16:23:50;38.73;;;19.13;;
3939;SDS011;1984;48.312;9.244;2023-03-03T16:32:04;53.93;;;22.33;;
3939;SDS011;1984;48.312;9.244;2023-03-03T16:35:13;56.80;;;24.00;;
3939;SDS011;1984;48.312;9.244;2023-03-03T16:40:22;40.97;;;21.53;;
3939;SDS011;1984;48.312;9.244;2023-03-03T16:43:21;69.90;;;30.33;;
3939;SDS011;1984;48.312;9.244;2023-03-03T16:46:01;61.47;;;28.13;;
3939;SDS011;1984;48.312;9.244;2023-03-03T16:49:02;58.10;;;27.10;;
3939;SDS011;1984;48.312;9.244;2023-03-03T16:51:30;60.67;;;27.27;;
3939;SDS011;1984;48.312;9.244;2023-03-03T16:57:03;42.77;;;22.13;;
3939;SDS011;1984;48.312;9.244;2023-03-03T16:59:43;48.30;;;23.10;;
3939;SDS011;1984;48.312;9.244;2023-03-03T17:08:30;49.57;;;20.27;;
3939;SDS011;1984;48.312;9.244;2023-03-03T17:11:51;37.47;;;19.80;;
3939;SDS011;1984;48.312;9.244;2023-03-03T17:16:59;41.03;;;19.60;;
3939;SDS011;1984;48.312;9.244;2023-03-03T17:22:51;40.53;;;18.97;;
3939;SDS011;1984;48.312;9.244;2023-03-03T17:25:39;50.97;;;21.00;;
3939;SDS011;1984;48.312;9.244;2023-03-03T17:28:23;40.33;;;19.30;;
3939;SDS011;1984;48.312;9.244;2023-03-03T17:33:55;38.23;;;19.20;;
3939;SDS011;1984;48.312;9.244;2023-03-03T17:45:11;44.07;;;19.20;;
3939;SDS011;1984;48.312;9.244;2023-03-03T18:01:38;38.60;;;17.87;;
3939;SDS011;1984;48.312;9.244;2023-03-03T18:18:02;34.27;;;16.33;;
3939;SDS011;1984;48.312;9.244;2023-03-03T18:20:50;31.33;;;16.17;;
3939;SDS011;1984;48.312;9.244;2023-03-03T18:29:06;39.73;;;17.77;;
3939;SDS011;1984;48.312;9.244;2023-03-03T18:42:29;39.87;;;16.47;;
3939;SDS011;1984;48.312;9.244;2023-03-03T18:44:56;34.20;;;16.83;;
3939;SDS011;1984;48.312;9.244;2023-03-03T18:50:30;36.10;;;18.00;;
3939;SDS011;1984;48.312;9.244;2023-03-03T18:53:43;41.37;;;18.93;;
3939;SDS011;1984;48.312;9.244;2023-03-03T18:55:54;35.13;;;17.27;;
3939;SDS011;1984;48.312;9.244;2023-03-03T18:58:26;37.23;;;17.40;;
3939;SDS011;1984;48.312;9.244;2023-03-03T19:06:11;46.00;;;17.57;;
3939;SDS011;1984;48.312;9.244;2023-03-03T19:09:19;38.67;;;16.80;;
3939;SDS011;1984;48.312;9.244;2023-03-03T19:12:08;36.30;;;13.80;;
3939;SDS011;1984;48.312;9.244;2023-03-03T19:14:41;44.83;;;16.90;;
3939;SDS011;1984;48.312;9.244;2023-03-03T19:19:58;33.30;;;15.87;;
3939;SDS011;1984;48.312;9.244;2023-03-03T19:22:48;34.60;;;14.80;;
3939;SDS011;1984;48.312;9.244;2023-03-03T19:25:25;36.27;;;16.20;;
3939;SDS011;1984;48.312;9.244;2023-03-03T19:33:17;33.07;;;16.03;;
3939;SDS011;1984;48.312;9.244;2023-03-03T19:36:06;30.10;;;15.53;;
3939;SDS011;1984;48.312;9.244;2023-03-03T19:55:48;33.60;;;15.30;;
3939;SDS011;1984;48.312;9.244;2023-03-03T20:03:58;40.43;;;18.43;;
3939;SDS011;1984;48.312;9.244;2023-03-03T20:06:31;32.83;;;15.17;;
3939;SDS011;1984;48.312;9.244;2023-03-03T20:09:07;39.90;;;16.50;;
3939;SDS011;1984;48.312;9.244;2023-03-03T20:14:44;31.17;;;13.93;;
3939;SDS011;1984;48.312;9.244;2023-03-03T20:25:50;30.23;;;14.47;;
3939;SDS011;1984;48.312;9.244;2023-03-03T20:36:38;27.23;;;13.57;;
3939;SDS011;1984;48.312;9.244;2023-03-03T20:39:32;32.23;;;14.30;;
3939;SDS011;1984;48.312;9.244;2023-03-03T20:42:26;27.53;;;14.03;;
3939;SDS011;1984;48.312;9.244;2023-03-03T20:48:01;39.70;;;15.20;;
3939;SDS011;1984;48.312;9.244;2023-03-03T20:50:50;35.73;;;14.50;;
3939;SDS011;1984;48.312;9.244;2023-03-03T21:02:18;28.90;;;14.70;;
3939;SDS011;1984;48.312;9.244;2023-03-03T21:05:06;28.80;;;15.17;;
3939;SDS011;1984;48.312;9.244;2023-03-03T21:07:38;35.47;;;16.07;;
3939;SDS011;1984;48.312;9.244;2023-03-03T21:10:31;30.40;;;15.70;;
3939;SDS011;1984;48.312;9.244;2023-03-03T21:15:55;36.63;;;16.30;;
3939;SDS011;1984;48.312;9.244;2023-03-03T21:18:26;44.70;;;18.37;;
3939;SDS011;1984;48.312;9.244;2023-03-03T21:20:51;35.30;;;14.77;;
3939;SDS011;1984;48.312;9.244;2023-03-03T21:23:17;29.00;;;15.13;;
3939;SDS011;1984;48.312;9.244;2023-03-03T21:25:51;35.30;;;15.30;;